createdAt,value
2018-07-21T00:02:04.491Z,7.77
2018-07-21T00:04:36.014Z,8.37
2018-07-21T00:07:04.794Z,7.07
2018-07-21T00:09:33.526Z,7.00
2018-07-21T00:12:02.206Z,6.80
2018-07-21T00:14:30.937Z,6.90
2018-07-21T00:16:59.671Z,7.10
2018-07-21T00:19:28.379Z,6.17
2018-07-21T00:21:57.055Z,6.83
2018-07-21T00:24:25.747Z,6.87
2018-07-21T00:26:54.408Z,7.07
2018-07-21T00:29:23.133Z,6.77
2018-07-21T00:31:51.802Z,6.50
2018-07-21T00:34:20.525Z,7.30
2018-07-21T00:36:49.309Z,7.00
2018-07-21T00:39:17.998Z,7.07
2018-07-21T00:41:46.767Z,6.63
2018-07-21T00:44:15.434Z,6.97
2018-07-21T00:46:44.153Z,6.73
2018-07-21T00:49:12.821Z,6.93
2018-07-21T00:51:41.542Z,6.30
2018-07-21T00:54:10.221Z,6.53
2018-07-21T00:56:38.930Z,6.43
2018-07-21T00:59:07.618Z,6.43
2018-07-21T01:01:36.318Z,6.43
2018-07-21T01:04:11.714Z,6.23
2018-07-21T01:06:40.430Z,5.87
2018-07-21T01:09:10.295Z,6.10
2018-07-21T01:11:39.183Z,6.13
2018-07-21T01:14:07.919Z,6.20
2018-07-21T01:16:36.617Z,5.70
2018-07-21T01:19:05.367Z,6.07
2018-07-21T01:21:34.063Z,6.67
2018-07-21T01:24:02.793Z,6.17
2018-07-21T01:26:31.534Z,6.03
2018-07-21T01:29:00.231Z,6.80
2018-07-21T01:31:28.979Z,5.63
2018-07-21T01:33:57.712Z,6.37
2018-07-21T01:36:26.394Z,6.13
2018-07-21T01:38:55.099Z,6.20
2018-07-21T01:41:23.834Z,6.13
2018-07-21T01:43:52.517Z,5.90
2018-07-21T01:46:21.276Z,5.90
2018-07-21T01:48:50.017Z,6.43
2018-07-21T01:51:18.726Z,6.30
2018-07-21T01:53:47.426Z,5.97
2018-07-21T01:56:16.089Z,5.97
2018-07-21T01:58:44.820Z,6.20
2018-07-21T02:01:13.496Z,5.80
2018-07-21T02:03:46.275Z,6.53
2018-07-21T02:06:14.982Z,6.20
2018-07-21T02:08:44.135Z,6.60
2018-07-21T02:11:13.071Z,6.80
2018-07-21T02:13:42.223Z,6.43
2018-07-21T02:16:10.931Z,6.70
2018-07-21T02:18:39.622Z,6.77
2018-07-21T02:21:08.359Z,6.67
2018-07-21T02:23:37.108Z,6.40
2018-07-21T02:26:05.789Z,6.43
2018-07-21T02:28:34.475Z,7.03
2018-07-21T02:31:03.203Z,6.57
2018-07-21T02:33:31.872Z,6.13
2018-07-21T02:36:00.574Z,7.23
2018-07-21T02:38:29.249Z,7.00
2018-07-21T02:40:57.954Z,5.90
2018-07-21T02:43:26.629Z,6.43
2018-07-21T02:45:55.341Z,6.97
2018-07-21T02:48:24.187Z,6.03
2018-07-21T02:50:52.866Z,6.73
2018-07-21T02:53:21.576Z,6.53
2018-07-21T02:55:50.273Z,6.60
2018-07-21T02:58:18.999Z,7.23
2018-07-21T03:00:47.657Z,7.43
2018-07-21T03:03:16.357Z,6.60
2018-07-21T03:05:45.055Z,6.50
2018-07-21T03:08:13.843Z,7.60
2018-07-21T03:10:49.279Z,7.03
2018-07-21T03:13:20.199Z,7.43
2018-07-21T03:15:48.948Z,6.93
2018-07-21T03:18:17.706Z,6.97
2018-07-21T03:20:46.385Z,7.23
2018-07-21T03:23:15.104Z,6.50
2018-07-21T03:25:43.803Z,6.73
2018-07-21T03:28:12.490Z,7.67
2018-07-21T03:30:41.243Z,7.40
2018-07-21T03:33:09.944Z,7.03
2018-07-21T03:35:38.643Z,7.00
2018-07-21T03:38:07.437Z,7.20
2018-07-21T03:40:36.261Z,7.87
2018-07-21T03:43:05.044Z,6.93
2018-07-21T03:45:40.209Z,7.07
2018-07-21T03:48:08.971Z,7.17
2018-07-21T03:50:37.688Z,6.80
2018-07-21T03:53:06.471Z,6.70
2018-07-21T03:55:35.156Z,7.70
2018-07-21T03:58:03.860Z,7.63
2018-07-21T04:00:32.596Z,7.60
2018-07-21T04:03:01.326Z,7.23
2018-07-21T04:05:30.049Z,7.73
2018-07-21T04:07:58.774Z,7.00
2018-07-21T04:10:27.448Z,6.40
2018-07-21T04:12:56.144Z,8.27
2018-07-21T04:15:24.858Z,7.30
2018-07-21T04:17:53.563Z,7.33
2018-07-21T04:20:22.329Z,7.80
2018-07-21T04:22:51.002Z,7.53
2018-07-21T04:25:19.754Z,7.63
2018-07-21T04:27:48.427Z,6.90
2018-07-21T04:30:17.114Z,8.00
2018-07-21T04:32:45.767Z,7.57
2018-07-21T04:35:14.486Z,8.17
2018-07-21T04:37:43.166Z,7.63
2018-07-21T04:40:11.870Z,7.57
2018-07-21T04:42:40.610Z,7.63
2018-07-21T04:45:09.276Z,7.97
2018-07-21T04:47:38.006Z,8.13
2018-07-21T04:50:06.727Z,8.10
2018-07-21T04:52:35.474Z,8.57
2018-07-21T04:55:04.217Z,7.33
2018-07-21T04:57:32.914Z,7.80
2018-07-21T05:00:01.677Z,7.97
2018-07-21T05:02:30.381Z,8.03
2018-07-21T05:04:59.081Z,8.03
2018-07-21T05:07:27.782Z,8.10
2018-07-21T05:09:56.458Z,8.17
2018-07-21T05:12:25.203Z,8.00
2018-07-21T05:14:54.076Z,8.07
2018-07-21T05:17:22.774Z,8.10
2018-07-21T05:19:51.508Z,8.63
2018-07-21T05:22:20.209Z,7.87
2018-07-21T05:24:48.925Z,7.87
2018-07-21T05:27:17.581Z,8.37
2018-07-21T05:29:46.273Z,8.50
2018-07-21T05:32:14.936Z,8.00
2018-07-21T05:34:43.637Z,8.93
2018-07-21T05:37:12.402Z,8.17
2018-07-21T05:39:41.085Z,8.10
2018-07-21T05:42:09.851Z,8.03
2018-07-21T05:44:38.554Z,7.77
2018-07-21T05:47:07.274Z,8.73
2018-07-21T05:49:35.945Z,8.67
2018-07-21T05:52:04.618Z,8.63
2018-07-21T05:54:33.329Z,8.83
2018-07-21T05:57:02.033Z,9.00
2018-07-21T05:59:30.713Z,8.37
2018-07-21T06:01:59.425Z,7.87
2018-07-21T06:04:28.097Z,8.03
2018-07-21T06:06:56.797Z,8.07
2018-07-21T06:09:25.478Z,9.17
2018-07-21T06:11:54.201Z,8.43
2018-07-21T06:14:22.891Z,8.60
2018-07-21T06:16:51.572Z,8.57
2018-07-21T06:19:20.218Z,9.20
2018-07-21T06:21:48.953Z,8.43
2018-07-21T06:24:17.608Z,9.17
2018-07-21T06:26:46.269Z,8.77
2018-07-21T06:29:14.966Z,8.47
2018-07-21T06:31:43.270Z,9.10
2018-07-21T06:34:11.950Z,9.60
2018-07-21T06:36:40.617Z,9.37
2018-07-21T06:39:11.042Z,9.97
2018-07-21T06:41:39.342Z,9.20
2018-07-21T06:44:08.218Z,9.87
2018-07-21T06:46:36.959Z,10.30
2018-07-21T06:49:05.698Z,10.83
2018-07-21T06:51:34.445Z,10.40
2018-07-21T06:54:03.237Z,10.17
2018-07-21T06:56:31.954Z,11.27
2018-07-21T06:59:00.675Z,11.03
2018-07-21T07:01:29.461Z,12.10
2018-07-21T07:03:58.160Z,10.30
2018-07-21T07:06:26.899Z,11.03
2018-07-21T07:08:55.573Z,10.43
2018-07-21T07:11:24.270Z,10.63
2018-07-21T07:13:52.947Z,10.60
2018-07-21T07:16:21.656Z,10.10
2018-07-21T07:18:50.360Z,11.53
2018-07-21T07:21:19.026Z,10.97
2018-07-21T07:23:47.690Z,11.03
2018-07-21T07:26:16.367Z,11.43
2018-07-21T07:28:45.069Z,10.93
2018-07-21T07:31:13.405Z,11.13
2018-07-21T07:33:42.096Z,12.07
2018-07-21T07:36:10.837Z,12.60
2018-07-21T07:38:39.896Z,11.97
2018-07-21T07:41:08.557Z,13.63
2018-07-21T07:43:37.497Z,11.50
2018-07-21T07:46:06.231Z,12.30
2018-07-21T07:48:34.898Z,11.67
2018-07-21T07:51:03.593Z,12.77
2018-07-21T07:53:32.600Z,11.90
2018-07-21T07:56:01.232Z,11.97
2018-07-21T07:58:29.922Z,12.20
2018-07-21T08:00:58.286Z,13.13
2018-07-21T08:03:26.635Z,12.70
2018-07-21T08:05:55.334Z,13.67
2018-07-21T08:08:24.011Z,12.30
2018-07-21T08:10:53.192Z,12.77
2018-07-21T08:13:21.878Z,12.17
2018-07-21T08:15:50.556Z,13.30
2018-07-21T08:18:19.283Z,13.43
2018-07-21T08:20:47.954Z,13.53
2018-07-21T08:23:16.646Z,12.50
2018-07-21T08:25:45.346Z,12.97
2018-07-21T08:28:14.030Z,13.77
2018-07-21T08:30:42.709Z,14.17
2018-07-21T08:33:11.401Z,13.93
2018-07-21T08:35:39.719Z,13.77
2018-07-21T08:38:08.386Z,14.17
2018-07-21T08:40:36.696Z,14.43
2018-07-21T08:43:05.378Z,16.00
2018-07-21T08:45:34.045Z,16.60
2018-07-21T08:48:02.348Z,17.53
2018-07-21T08:50:31.026Z,16.17
2018-07-21T08:52:59.795Z,19.17
2018-07-21T08:55:28.438Z,17.50
2018-07-21T08:57:57.159Z,17.50
2018-07-21T09:00:25.840Z,19.93
2018-07-21T09:02:54.517Z,20.77
2018-07-21T09:05:23.268Z,20.90
2018-07-21T09:07:56.481Z,21.87
2018-07-21T09:10:25.134Z,22.63
2018-07-21T09:12:53.841Z,23.20
2018-07-21T09:15:22.496Z,23.27
2018-07-21T09:17:51.170Z,21.70
2018-07-21T09:20:19.889Z,22.40
2018-07-21T09:22:48.554Z,23.83
2018-07-21T09:25:17.269Z,23.57
2018-07-21T09:27:45.938Z,21.80
2018-07-21T09:30:14.674Z,22.80
2018-07-21T09:32:43.337Z,21.03
2018-07-21T09:35:12.059Z,22.77
2018-07-21T09:37:40.347Z,21.57
2018-07-21T09:40:09.040Z,23.47
2018-07-21T09:42:37.726Z,22.13
2018-07-21T09:45:06.276Z,23.90
2018-07-21T09:47:34.958Z,21.70
2018-07-21T09:50:03.671Z,23.70
2018-07-21T09:52:32.353Z,24.77
2018-07-21T09:55:00.660Z,23.03
2018-07-21T09:57:29.430Z,23.03
2018-07-21T09:59:58.172Z,23.67
2018-07-21T10:02:26.860Z,24.03
2018-07-21T10:04:55.889Z,22.97
2018-07-21T10:07:24.585Z,23.60
2018-07-21T10:09:53.286Z,22.30
2018-07-21T10:12:21.993Z,24.97
2018-07-21T10:14:50.654Z,23.47
2018-07-21T10:17:19.293Z,22.97
2018-07-21T10:19:47.978Z,24.97
2018-07-21T10:22:16.687Z,26.57
2018-07-21T10:24:50.354Z,25.73
2018-07-21T10:27:19.035Z,24.00
2018-07-21T10:29:47.704Z,24.60
2018-07-21T10:32:16.381Z,24.73
2018-07-21T10:34:45.046Z,22.13
2018-07-21T10:37:13.738Z,21.90
2018-07-21T10:39:42.457Z,22.03
2018-07-21T10:42:11.137Z,22.27
2018-07-21T10:44:39.815Z,19.97
2018-07-21T10:47:08.521Z,19.80
2018-07-21T10:49:37.170Z,18.53
2018-07-21T10:52:05.829Z,19.27
2018-07-21T10:54:34.517Z,19.87
2018-07-21T10:57:03.206Z,19.57
2018-07-21T10:59:31.914Z,19.57
2018-07-21T11:02:00.593Z,17.67
2018-07-21T11:04:29.293Z,21.93
2018-07-21T11:06:58.014Z,20.27
2018-07-21T11:09:26.724Z,23.10
2018-07-21T11:11:55.374Z,19.50
2018-07-21T11:14:24.057Z,19.83
2018-07-21T11:16:52.734Z,20.07
2018-07-21T11:19:21.438Z,22.07
2018-07-21T11:21:50.167Z,18.57
2018-07-21T11:24:18.821Z,20.43
2018-07-21T11:26:47.513Z,18.37
2018-07-21T11:29:16.215Z,18.73
2018-07-21T11:31:44.898Z,20.40
2018-07-21T11:34:13.576Z,22.60
2018-07-21T11:36:42.284Z,19.70
2018-07-21T11:39:10.987Z,18.23
2018-07-21T11:41:39.696Z,18.40
2018-07-21T11:44:08.348Z,20.60
2018-07-21T11:46:37.042Z,21.13
2018-07-21T11:49:05.721Z,19.73
2018-07-21T11:51:34.429Z,19.10
2018-07-21T11:54:03.081Z,18.30
2018-07-21T11:56:31.756Z,18.80
2018-07-21T11:59:00.471Z,20.10
2018-07-21T12:01:29.171Z,21.27
2018-07-21T12:03:57.508Z,17.00
2018-07-21T12:06:26.241Z,15.10
2018-07-21T12:08:54.918Z,16.97
2018-07-21T12:11:23.677Z,15.13
2018-07-21T12:13:52.370Z,15.07
2018-07-21T12:16:21.014Z,14.33
2018-07-21T12:18:49.719Z,13.97
2018-07-21T12:21:18.895Z,14.30
2018-07-21T12:23:47.659Z,14.03
2018-07-21T12:26:16.331Z,15.20
2018-07-21T12:28:44.605Z,15.50
2018-07-21T12:31:12.911Z,14.43
2018-07-21T12:33:41.555Z,15.47
2018-07-21T12:36:09.885Z,15.60
2018-07-21T12:38:38.571Z,16.47
2018-07-21T12:41:07.345Z,14.97
2018-07-21T12:43:36.007Z,16.83
2018-07-21T12:46:04.767Z,14.67
2018-07-21T12:48:33.455Z,15.10
2018-07-21T12:51:02.178Z,16.00
2018-07-21T12:53:30.465Z,15.83
2018-07-21T12:55:59.157Z,17.10
2018-07-21T12:58:27.850Z,16.00
2018-07-21T13:00:56.515Z,18.17
2018-07-21T13:03:28.178Z,19.00
2018-07-21T13:05:56.997Z,17.97
2018-07-21T13:08:25.788Z,18.57
2018-07-21T13:10:54.497Z,19.70
2018-07-21T13:13:23.265Z,20.17
2018-07-21T13:15:51.942Z,16.57
2018-07-21T13:18:20.665Z,16.77
2018-07-21T13:20:49.411Z,17.33
2018-07-21T13:23:18.081Z,17.90
2018-07-21T13:25:46.952Z,18.83
2018-07-21T13:28:15.656Z,17.53
2018-07-21T13:30:44.386Z,16.17
2018-07-21T13:33:13.445Z,19.00
2018-07-21T13:35:42.146Z,14.30
2018-07-21T13:38:10.814Z,14.93
2018-07-21T13:40:39.537Z,15.30
2018-07-21T13:43:08.207Z,16.20
2018-07-21T13:45:37.076Z,14.53
2018-07-21T13:48:06.090Z,14.47
2018-07-21T13:50:35.551Z,13.77
2018-07-21T13:53:04.269Z,13.87
2018-07-21T13:55:32.963Z,14.50
2018-07-21T13:58:01.677Z,15.27
2018-07-21T14:00:30.359Z,16.70
2018-07-21T14:02:59.045Z,14.50
2018-07-21T14:05:27.709Z,16.57
2018-07-21T14:07:57.381Z,17.77
2018-07-21T14:10:26.361Z,17.83
2018-07-21T14:12:55.074Z,17.40
2018-07-21T14:15:23.749Z,19.53
2018-07-21T14:17:52.466Z,21.17
2018-07-21T14:20:21.236Z,18.97
2018-07-21T14:22:49.936Z,15.50
2018-07-21T14:25:18.602Z,15.97
2018-07-21T14:27:47.282Z,16.67
2018-07-21T14:30:16.026Z,15.73
2018-07-21T14:32:44.721Z,17.33
2018-07-21T14:35:13.433Z,16.50
2018-07-21T14:37:42.082Z,17.53
2018-07-21T14:40:10.781Z,15.27
2018-07-21T14:42:39.473Z,18.67
2018-07-21T14:45:08.207Z,18.43
2018-07-21T14:47:36.873Z,21.27
2018-07-21T14:50:05.780Z,16.43
2018-07-21T14:52:34.629Z,13.60
2018-07-21T14:55:03.989Z,13.90
2018-07-21T14:57:32.680Z,12.90
2018-07-21T15:00:01.327Z,15.73
2018-07-21T15:02:30.022Z,16.53
2018-07-21T15:04:58.689Z,16.10
2018-07-21T15:07:27.374Z,15.17
2018-07-21T15:09:56.062Z,15.63
2018-07-21T15:12:24.793Z,17.10
2018-07-21T15:14:53.453Z,15.90
2018-07-21T15:17:22.221Z,17.00
2018-07-21T15:19:50.869Z,17.10
2018-07-21T15:22:19.554Z,15.77
2018-07-21T15:24:48.253Z,13.37
2018-07-21T15:27:16.938Z,12.67
2018-07-21T15:29:45.754Z,11.33
2018-07-21T15:32:14.422Z,11.33
2018-07-21T15:34:43.141Z,12.03
2018-07-21T15:37:11.778Z,11.77
2018-07-21T15:39:40.485Z,11.83
2018-07-21T15:42:09.153Z,12.63
2018-07-21T15:44:37.868Z,13.90
2018-07-21T15:47:06.592Z,12.93
2018-07-21T15:49:35.258Z,13.07
2018-07-21T15:52:03.998Z,11.67
2018-07-21T15:54:32.678Z,12.33
2018-07-21T15:57:02.127Z,13.00
2018-07-21T15:59:30.778Z,11.37
2018-07-21T16:01:59.466Z,12.13
2018-07-21T16:04:28.130Z,13.03
2018-07-21T16:06:56.836Z,11.33
2018-07-21T16:09:25.495Z,11.70
2018-07-21T16:11:54.186Z,11.83
2018-07-21T16:14:22.840Z,12.60
2018-07-21T16:16:51.515Z,13.87
2018-07-21T16:19:20.177Z,13.30
2018-07-21T16:21:48.850Z,17.30
2018-07-21T16:24:17.513Z,13.97
2018-07-21T16:26:46.158Z,15.17
2018-07-21T16:29:14.874Z,15.47
2018-07-21T16:31:43.549Z,13.93
2018-07-21T16:34:12.241Z,12.77
2018-07-21T16:36:40.907Z,14.93
2018-07-21T16:39:10.822Z,16.87
2018-07-21T16:41:39.712Z,18.20
2018-07-21T16:44:08.396Z,17.20
2018-07-21T16:46:39.975Z,22.47
2018-07-21T16:49:08.291Z,20.03
2018-07-21T16:51:36.974Z,24.53
2018-07-21T16:54:05.659Z,20.17
2018-07-21T16:56:34.375Z,19.30
2018-07-21T16:59:03.153Z,18.47
2018-07-21T17:01:31.854Z,16.67
2018-07-21T17:04:00.501Z,17.70
2018-07-21T17:06:29.193Z,16.93
2018-07-21T17:08:57.853Z,16.97
2018-07-21T17:11:26.541Z,17.13
2018-07-21T17:13:55.228Z,15.33
2018-07-21T17:16:24.093Z,14.60
2018-07-21T17:18:52.824Z,15.77
2018-07-21T17:21:21.491Z,15.43
2018-07-21T17:23:50.295Z,15.13
2018-07-21T17:26:18.901Z,14.77
2018-07-21T17:28:47.590Z,15.77
2018-07-21T17:31:19.157Z,14.57
2018-07-21T17:33:47.849Z,15.27
2018-07-21T17:36:16.507Z,17.73
2018-07-21T17:38:45.233Z,15.87
2018-07-21T17:41:13.939Z,16.90
2018-07-21T17:43:42.614Z,17.03
2018-07-21T17:46:11.304Z,17.73
2018-07-21T17:48:39.621Z,15.70
2018-07-21T17:51:08.390Z,15.77
2018-07-21T17:53:37.118Z,15.07
2018-07-21T17:56:06.069Z,17.03
2018-07-21T17:58:34.742Z,16.50
2018-07-21T18:01:03.483Z,17.27
2018-07-21T18:03:32.159Z,19.17
2018-07-21T18:06:00.882Z,18.50
2018-07-21T18:08:29.564Z,20.20
2018-07-21T18:10:58.234Z,20.13
2018-07-21T18:13:26.961Z,18.90
2018-07-21T18:15:55.711Z,20.23
2018-07-21T18:18:24.402Z,18.57
2018-07-21T18:20:53.094Z,17.37
2018-07-21T18:23:21.818Z,19.30
2018-07-21T18:25:50.480Z,18.33
2018-07-21T18:28:19.168Z,20.73
2018-07-21T18:30:47.833Z,18.83
2018-07-21T18:33:16.537Z,18.97
2018-07-21T18:35:46.117Z,19.63
2018-07-21T18:38:15.123Z,20.93
2018-07-21T18:40:43.822Z,20.60
2018-07-21T18:43:12.481Z,20.00
2018-07-21T18:45:41.204Z,22.13
2018-07-21T18:48:10.088Z,20.27
2018-07-21T18:50:38.802Z,20.37
2018-07-21T18:53:07.518Z,21.90
2018-07-21T18:55:36.224Z,22.33
2018-07-21T18:58:04.909Z,24.27
2018-07-21T19:00:33.633Z,24.90
2018-07-21T19:03:02.298Z,25.20
2018-07-21T19:05:31.009Z,25.07
2018-07-21T19:07:59.658Z,26.73
2018-07-21T19:10:28.334Z,26.70
2018-07-21T19:12:56.998Z,26.43
2018-07-21T19:15:30.965Z,28.03
2018-07-21T19:17:59.689Z,27.40
2018-07-21T19:20:33.665Z,29.03
2018-07-21T19:23:01.963Z,28.70
2018-07-21T19:25:35.942Z,29.47
2018-07-21T19:28:04.781Z,29.13
2018-07-21T19:30:33.454Z,29.17
2018-07-21T19:33:02.134Z,30.57
2018-07-21T19:35:31.716Z,30.70
2018-07-21T19:38:00.427Z,31.57
2018-07-21T19:40:29.114Z,30.63
2018-07-21T19:42:57.805Z,30.83
2018-07-21T19:45:26.542Z,30.23
2018-07-21T19:47:55.284Z,30.77
2018-07-21T19:50:23.998Z,32.07
2018-07-21T19:52:52.771Z,31.13
2018-07-21T19:55:21.472Z,30.60
2018-07-21T19:57:50.149Z,31.53
2018-07-21T20:00:18.801Z,30.43
2018-07-21T20:02:47.093Z,30.93
2018-07-21T20:05:15.833Z,30.83
2018-07-21T20:07:44.498Z,31.80
2018-07-21T20:10:13.219Z,31.63
2018-07-21T20:12:41.890Z,31.67
2018-07-21T20:15:10.580Z,30.87
2018-07-21T20:17:39.260Z,29.10
2018-07-21T20:20:08.296Z,31.53
2018-07-21T20:22:36.999Z,30.30
2018-07-21T20:25:05.780Z,31.23
2018-07-21T20:27:34.487Z,31.63
2018-07-21T20:30:03.298Z,30.20
2018-07-21T20:32:31.960Z,30.80
2018-07-21T20:35:00.750Z,30.10
2018-07-21T20:37:29.454Z,28.30
2018-07-21T20:39:58.232Z,29.37
2018-07-21T20:42:26.898Z,29.37
2018-07-21T20:44:55.623Z,30.03
2018-07-21T20:47:24.359Z,28.53
2018-07-21T20:49:53.138Z,28.50
2018-07-21T20:52:22.006Z,28.50
2018-07-21T20:54:50.669Z,24.93
2018-07-21T20:57:19.456Z,28.20
2018-07-21T20:59:48.118Z,27.40
2018-07-21T21:02:16.829Z,29.80
2018-07-21T21:04:45.542Z,27.00
2018-07-21T21:07:14.251Z,28.13
2018-07-21T21:09:43.005Z,28.60
2018-07-21T21:12:11.717Z,29.07
2018-07-21T21:14:40.410Z,27.47
2018-07-21T21:17:09.171Z,28.50
2018-07-21T21:19:37.938Z,29.30
2018-07-21T21:22:06.674Z,29.47
2018-07-21T21:24:35.366Z,30.27
2018-07-21T21:27:04.071Z,28.83
2018-07-21T21:29:32.799Z,28.43
2018-07-21T21:32:01.448Z,29.23
2018-07-21T21:34:30.105Z,30.80
2018-07-21T21:36:58.810Z,30.70
2018-07-21T21:39:27.467Z,32.30
2018-07-21T21:41:56.168Z,32.03
2018-07-21T21:44:24.831Z,32.97
2018-07-21T21:46:53.572Z,33.80
2018-07-21T21:49:22.278Z,34.73
2018-07-21T21:51:50.970Z,33.10
2018-07-21T21:54:19.687Z,35.33
2018-07-21T21:56:48.367Z,36.90
2018-07-21T21:59:17.057Z,35.23
2018-07-21T22:01:45.805Z,35.27
2018-07-21T22:04:14.584Z,33.73
2018-07-21T22:06:43.217Z,34.70
2018-07-21T22:09:12.205Z,33.63
2018-07-21T22:11:40.884Z,33.33
2018-07-21T22:14:09.598Z,30.90
2018-07-21T22:16:38.261Z,33.40
2018-07-21T22:19:06.970Z,32.57
2018-07-21T22:21:35.640Z,33.23
2018-07-21T22:24:04.394Z,32.10
2018-07-21T22:26:33.045Z,29.53
2018-07-21T22:29:01.701Z,31.67
2018-07-21T22:31:30.381Z,32.97
2018-07-21T22:33:59.049Z,30.00
2018-07-21T22:36:27.755Z,28.50
2018-07-21T22:38:56.402Z,30.97
2018-07-21T22:41:25.081Z,31.20
2018-07-21T22:43:53.738Z,28.60
2018-07-21T22:46:22.446Z,29.33
2018-07-21T22:48:51.113Z,30.63
2018-07-21T22:51:19.796Z,31.00
2018-07-21T22:53:48.550Z,31.50
2018-07-21T22:56:17.238Z,31.93
2018-07-21T22:58:45.917Z,32.13
2018-07-21T23:01:14.674Z,33.43
2018-07-21T23:03:43.308Z,31.37
2018-07-21T23:06:11.983Z,32.27
2018-07-21T23:08:40.662Z,33.90
2018-07-21T23:11:09.337Z,33.17
2018-07-21T23:13:38.019Z,32.67
2018-07-21T23:16:06.727Z,35.90
2018-07-21T23:18:35.428Z,35.80
2018-07-21T23:21:04.122Z,33.67
2018-07-21T23:23:32.769Z,33.57
2018-07-21T23:26:01.446Z,34.67
2018-07-21T23:28:30.105Z,34.53
2018-07-21T23:30:58.829Z,36.07
2018-07-21T23:33:27.514Z,35.43
2018-07-21T23:35:56.202Z,34.63
2018-07-21T23:38:24.889Z,35.80
2018-07-21T23:40:53.614Z,35.17
2018-07-21T23:43:22.321Z,34.70
2018-07-21T23:45:51.009Z,35.40
2018-07-21T23:48:19.696Z,33.20
2018-07-21T23:50:48.366Z,33.33
2018-07-21T23:53:17.048Z,33.87
2018-07-21T23:55:45.686Z,34.83
2018-07-21T23:58:14.357Z,33.53
